Time;durP1;ratioP1;P1;durP2;ratioP2;P2;SDS_P1;SDS_P2;PMS_P1;PMS_P2;Temp;Humidity;BMP_temperature;BMP_pressure;BME280_temperature;BME280_humidity;BME280_pressure;Samples;Min_cycle;Max_cycle;Signal;HPM_P1;HPM_P2
2021/09/15 00:00:23;;;;;;;12.35;9.07;;;20.20;84.00;;;;;;5053112;28;20139;-51
2021/09/15 00:02:49;;;;;;;12.27;9.68;;;20.20;84.40;;;;;;5052670;28;20100;-47
2021/09/15 00:05:15;;;;;;;13.45;9.40;;;20.10;84.60;;;;;;5052904;28;20021;-48
2021/09/15 00:07:41;;;;;;;10.88;8.75;;;20.00;84.80;;;;;;5052536;28;20025;-49
2021/09/15 00:10:07;;;;;;;11.18;8.73;;;20.00;85.00;;;;;;5052919;28;20106;-51
2021/09/15 00:12:33;;;;;;;11.52;8.35;;;20.00;85.20;;;;;;5052633;28;20025;-49
2021/09/15 00:14:59;;;;;;;11.15;8.60;;;19.90;85.40;;;;;;5052824;28;20108;-50
2021/09/15 00:17:24;;;;;;;11.15;8.60;;;19.80;85.40;;;;;;5052453;28;20129;-51
2021/09/15 00:19:50;;;;;;;11.35;10.18;;;19.80;85.50;;;;;;5052536;28;20052;-47
2021/09/15 00:22:15;;;;;;;10.18;9.18;;;19.80;85.60;;;;;;5052876;28;20418;-49
2021/09/15 00:24:41;;;;;;;11.20;8.55;;;19.80;85.80;;;;;;5051091;28;20025;-48
2021/09/15 00:27:07;;;;;;;15.25;9.93;;;19.80;85.90;;;;;;5052660;28;20025;-48
2021/09/15 00:29:32;;;;;;;11.95;9.80;;;19.70;86.00;;;;;;5052713;28;20426;-49
2021/09/15 00:31:58;;;;;;;14.73;10.20;;;19.70;85.90;;;;;;5052452;28;20021;-49
2021/09/15 00:34:29;;;;;;;11.30;10.10;;;19.70;86.10;;;;;;5052381;28;20028;-50
2021/09/15 00:36:55;;;;;;;10.63;8.82;;;19.80;86.00;;;;;;5052514;28;20119;-50
2021/09/15 00:39:21;;;;;;;9.90;8.90;;;19.80;86.00;;;;;;5052274;28;20033;-47
2021/09/15 00:41:46;;;;;;;10.50;9.30;;;19.80;85.70;;;;;;5052615;28;20075;-48
2021/09/15 00:44:14;;;;;;;11.93;9.48;;;19.80;85.70;;;;;;5053124;28;20029;-47
2021/09/15 00:46:40;;;;;;;14.77;10.57;;;20.00;85.60;;;;;;5053056;28;20053;-47
2021/09/15 00:49:06;;;;;;;13.05;11.43;;;20.00;85.20;;;;;;5051328;28;20057;-49
2021/09/15 00:51:37;;;;;;;12.00;10.18;;;20.20;84.70;;;;;;5051334;28;20389;-48
2021/09/15 00:54:04;;;;;;;10.93;9.02;;;20.10;84.60;;;;;;5052125;28;20068;-48
2021/09/15 00:56:31;;;;;;;16.80;10.10;;;19.90;85.20;;;;;;5052342;28;20357;-49
2021/09/15 00:58:56;;;;;;;10.98;9.88;;;19.80;85.60;;;;;;5052280;28;20074;-47
2021/09/15 01:01:22;;;;;;;12.10;9.15;;;19.80;85.70;;;;;;5051918;28;20025;-49
2021/09/15 01:03:48;;;;;;;11.98;9.68;;;19.80;85.70;;;;;;5052331;28;20017;-52
2021/09/15 01:06:14;;;;;;;13.70;9.95;;;19.90;85.50;;;;;;5052093;28;20075;-51
2021/09/15 01:08:41;;;;;;;11.48;9.65;;;19.90;85.40;;;;;;5050498;28;20040;-48
2021/09/15 01:11:08;;;;;;;13.73;9.80;;;19.90;85.40;;;;;;5051834;28;20039;-49
2021/09/15 01:13:34;;;;;;;17.45;10.23;;;20.10;84.70;;;;;;5052022;28;20033;-50
2021/09/15 01:16:00;;;;;;;11.80;9.43;;;19.90;85.40;;;;;;5050406;28;20035;-49
2021/09/15 01:18:26;;;;;;;11.15;9.23;;;20.00;85.20;;;;;;5051717;28;20056;-49
2021/09/15 01:20:51;;;;;;;11.77;10.32;;;20.10;84.80;;;;;;5051583;28;20377;-47
2021/09/15 01:23:17;;;;;;;12.23;9.75;;;19.90;85.30;;;;;;5051609;28;20024;-48
2021/09/15 01:25:43;;;;;;;15.65;11.00;;;19.80;85.60;;;;;;5053881;28;20100;-47
2021/09/15 01:28:09;;;;;;;13.10;11.00;;;19.90;85.70;;;;;;5055354;28;20082;-50
2021/09/15 01:30:34;;;;;;;17.92;12.00;;;20.00;84.80;;;;;;5055614;28;20025;-50
2021/09/15 01:33:00;;;;;;;14.90;11.10;;;20.10;84.70;;;;;;5055205;28;20396;-48
2021/09/15 01:35:26;;;;;;;13.93;12.05;;;20.10;84.70;;;;;;5054995;28;20029;-51
2021/09/15 01:37:52;;;;;;;18.58;12.13;;;20.00;84.90;;;;;;5055138;28;20025;-50
2021/09/15 01:40:17;;;;;;;18.38;12.05;;;20.00;85.20;;;;;;5055245;28;20021;-48
2021/09/15 01:42:43;;;;;;;13.40;11.60;;;20.00;85.10;;;;;;5055308;28;20032;-48
2021/09/15 01:45:12;;;;;;;15.73;11.65;;;19.90;85.30;;;;;;5055310;28;20056;-48
2021/09/15 01:47:40;;;;;;;13.98;10.55;;;19.90;85.40;;;;;;5055126;28;20107;-51
2021/09/15 01:50:06;;;;;;;11.75;10.52;;;19.80;85.50;;;;;;5055027;28;20079;-47
2021/09/15 01:52:32;;;;;;;15.10;11.63;;;19.80;85.60;;;;;;5055079;28;20028;-49
2021/09/15 01:54:58;;;;;;;13.35;11.52;;;19.80;85.70;;;;;;5054879;28;20033;-48
2021/09/15 01:57:23;;;;;;;14.65;11.00;;;19.80;85.80;;;;;;5054801;28;20079;-47
2021/09/15 01:59:49;;;;;;;11.57;10.07;;;19.80;86.00;;;;;;5054862;28;20070;-47
2021/09/15 02:02:15;;;;;;;11.70;10.20;;;19.80;86.10;;;;;;5055165;28;20416;-47
2021/09/15 02:04:41;;;;;;;15.07;11.85;;;19.80;86.20;;;;;;5054780;28;20032;-51
2021/09/15 02:07:09;;;;;;;13.00;11.20;;;19.80;86.30;;;;;;5054711;28;20108;-49
2021/09/15 02:09:35;;;;;;;14.40;11.38;;;19.80;86.20;;;;;;5055186;28;20024;-49
2021/09/15 02:12:01;;;;;;;11.55;10.35;;;19.80;86.20;;;;;;5054615;28;20100;-47
2021/09/15 02:14:26;;;;;;;13.65;10.55;;;19.80;86.10;;;;;;5054992;28;20108;-47
2021/09/15 02:16:53;;;;;;;12.10;10.20;;;19.80;86.30;;;;;;5054533;28;20045;-48
2021/09/15 02:19:18;;;;;;;14.00;10.35;;;19.80;86.50;;;;;;5054506;28;20024;-49
2021/09/15 02:21:44;;;;;;;13.18;10.38;;;19.70;86.70;;;;;;5055117;28;20473;-50
2021/09/15 02:24:10;;;;;;;12.63;10.10;;;19.70;86.70;;;;;;5055057;28;20078;-52
2021/09/15 02:26:36;;;;;;;13.55;9.48;;;19.60;86.80;;;;;;5053613;28;20465;-49
2021/09/15 02:29:03;;;;;;;13.02;9.98;;;19.60;86.80;;;;;;5054843;28;20029;-47
2021/09/15 02:31:29;;;;;;;14.70;10.25;;;19.60;87.10;;;;;;5054320;28;20040;-48
2021/09/15 02:33:55;;;;;;;11.95;10.68;;;19.60;86.80;;;;;;5054215;28;20037;-48
2021/09/15 02:36:21;;;;;;;11.20;9.80;;;19.60;86.90;;;;;;5054484;28;20029;-52
2021/09/15 02:38:47;;;;;;;12.23;10.25;;;19.60;87.00;;;;;;5054077;28;20461;-49
2021/09/15 02:41:13;;;;;;;13.38;10.95;;;19.60;87.00;;;;;;5054271;28;20025;-47
2021/09/15 02:43:39;;;;;;;12.32;10.13;;;19.60;87.00;;;;;;5054112;28;20016;-48
2021/09/15 02:46:05;;;;;;;14.27;10.38;;;19.60;87.10;;;;;;5054476;28;20070;-50
2021/09/15 02:48:30;;;;;;;13.65;10.23;;;19.60;87.10;;;;;;5054121;28;20504;-48
2021/09/15 02:50:56;;;;;;;13.52;11.52;;;19.60;87.20;;;;;;5053897;28;20021;-49
2021/09/15 02:53:22;;;;;;;10.50;9.35;;;19.60;87.20;;;;;;5053810;28;20025;-49
2021/09/15 02:55:47;;;;;;;12.50;10.20;;;19.60;87.20;;;;;;5053601;28;20021;-49
2021/09/15 02:58:13;;;;;;;15.27;10.70;;;19.60;87.20;;;;;;5052339;28;20446;-47
2021/09/15 03:00:39;;;;;;;14.23;10.40;;;19.60;87.30;;;;;;5052266;28;20127;-48
2021/09/15 03:03:05;;;;;;;11.60;10.38;;;19.70;87.40;;;;;;5053559;28;20021;-48
2021/09/15 03:05:31;;;;;;;13.25;11.38;;;19.60;87.50;;;;;;5053828;28;20025;-47
2021/09/15 03:07:58;;;;;;;13.15;11.00;;;19.60;87.40;;;;;;5053752;28;20037;-49
2021/09/15 03:10:24;;;;;;;13.43;10.02;;;19.60;87.60;;;;;;5053418;28;20104;-47
2021/09/15 03:12:50;;;;;;;14.45;11.23;;;19.60;87.70;;;;;;5053296;28;20113;-48
2021/09/15 03:15:16;;;;;;;13.07;10.13;;;19.60;88.00;;;;;;5053359;28;20052;-47
2021/09/15 03:17:42;;;;;;;11.85;10.25;;;19.60;88.20;;;;;;5052531;28;20041;-48
2021/09/15 03:20:08;;;;;;;12.63;10.45;;;19.60;88.20;;;;;;5052794;28;20357;-49
2021/09/15 03:22:34;;;;;;;13.50;11.10;;;19.60;88.30;;;;;;5052809;28;20064;-47
2021/09/15 03:24:59;;;;;;;12.73;10.75;;;19.60;88.30;;;;;;5052766;28;20048;-47
2021/09/15 03:27:25;;;;;;;15.55;10.45;;;19.60;88.50;;;;;;5052737;28;20087;-48
2021/09/15 03:29:50;;;;;;;13.38;10.55;;;19.60;88.60;;;;;;5052724;28;20473;-50
2021/09/15 03:32:16;;;;;;;15.23;10.50;;;19.60;88.90;;;;;;5053008;28;20436;-52
2021/09/15 03:34:42;;;;;;;16.05;11.95;;;19.60;89.30;;;;;;5052780;28;20033;-50
2021/09/15 03:37:07;;;;;;;13.73;11.05;;;19.60;89.30;;;;;;5052966;28;20029;-48
2021/09/15 03:39:33;;;;;;;14.25;11.77;;;19.50;89.40;;;;;;5053077;28;20116;-49
2021/09/15 03:41:59;;;;;;;15.73;12.32;;;19.50;89.50;;;;;;5052618;28;20381;-50
2021/09/15 03:44:24;;;;;;;19.42;12.90;;;19.50;89.70;;;;;;5052742;28;20071;-48
2021/09/15 03:46:50;;;;;;;14.68;11.30;;;19.50;89.70;;;;;;5052797;28;20101;-52
2021/09/15 03:49:16;;;;;;;14.38;11.93;;;19.50;89.80;;;;;;5052111;28;20469;-50
2021/09/15 03:51:41;;;;;;;14.52;11.68;;;19.50;89.80;;;;;;5052984;28;20101;-51
2021/09/15 03:54:07;;;;;;;12.90;11.32;;;19.50;89.40;;;;;;5052336;28;20108;-51
2021/09/15 03:56:32;;;;;;;13.88;11.38;;;19.50;89.60;;;;;;5052529;28;20082;-47
2021/09/15 03:58:58;;;;;;;14.45;11.90;;;19.50;89.60;;;;;;5052721;28;20029;-48
2021/09/15 04:01:24;;;;;;;16.95;11.68;;;19.50;89.50;;;;;;5053035;28;20082;-49
2021/09/15 04:03:49;;;;;;;15.05;11.10;;;19.50;89.30;;;;;;5052847;28;20029;-49
2021/09/15 04:06:15;;;;;;;15.65;11.85;;;19.50;89.40;;;;;;5052705;28;20021;-48
2021/09/15 04:08:41;;;;;;;16.45;11.88;;;19.50;89.70;;;;;;5051654;28;20033;-49
2021/09/15 04:11:06;;;;;;;14.40;12.18;;;19.50;89.80;;;;;;5052824;28;20025;-53
2021/09/15 04:13:32;;;;;;;16.77;11.18;;;19.50;90.00;;;;;;5052690;28;20105;-49
2021/09/15 04:15:58;;;;;;;15.63;12.65;;;19.50;90.20;;;;;;5052625;28;20031;-48
2021/09/15 04:18:23;;;;;;;16.42;12.40;;;19.50;90.40;;;;;;5052567;28;20126;-51
2021/09/15 04:20:49;;;;;;;18.20;12.98;;;19.40;90.40;;;;;;5053217;28;20033;-48
2021/09/15 04:23:26;;;;;;;15.65;12.55;;;19.40;90.60;;;;;;5052705;28;20057;-49
2021/09/15 04:31:24;;;;;;;17.05;13.68;;;19.40;90.80;;;;;;5052958;28;20028;-48
2021/09/15 04:33:51;;;;;;;17.48;12.85;;;19.40;91.00;;;;;;5052613;28;20025;-49
2021/09/15 04:36:18;;;;;;;15.35;12.40;;;19.30;91.20;;;;;;5052563;28;20129;-49
2021/09/15 04:38:44;;;;;;;18.27;13.68;;;19.30;91.20;;;;;;5052716;28;20117;-47
2021/09/15 04:41:10;;;;;;;14.55;13.05;;;19.30;91.20;;;;;;5052494;28;20366;-49
2021/09/15 04:43:35;;;;;;;15.32;13.43;;;19.30;91.30;;;;;;5052459;28;20017;-51
2021/09/15 04:46:01;;;;;;;15.32;13.73;;;19.30;91.40;;;;;;5050994;28;20067;-52
2021/09/15 04:48:27;;;;;;;15.07;13.57;;;19.30;91.40;;;;;;5052751;28;20025;-51
2021/09/15 04:50:52;;;;;;;17.10;14.00;;;19.30;91.50;;;;;;5052465;28;20060;-51
2021/09/15 04:53:18;;;;;;;14.68;13.13;;;19.30;91.60;;;;;;5052762;28;20109;-49
2021/09/15 04:55:44;;;;;;;20.15;13.65;;;19.30;91.70;;;;;;5053004;28;20022;-52
2021/09/15 04:58:09;;;;;;;18.50;15.07;;;19.30;91.60;;;;;;5052290;28;20029;-48
2021/09/15 05:00:35;;;;;;;14.10;12.70;;;19.40;91.70;;;;;;5054466;28;20021;-53
2021/09/15 05:03:01;;;;;;;16.77;13.73;;;19.30;91.70;;;;;;5056224;28;20029;-48
2021/09/15 05:05:27;;;;;;;16.27;13.00;;;19.30;91.60;;;;;;5056174;28;20032;-50
2021/09/15 05:07:52;;;;;;;16.98;14.80;;;19.30;91.60;;;;;;5055984;28;20056;-49
2021/09/15 05:10:24;;;;;;;18.77;16.55;;;19.40;91.60;;;;;;5056098;28;20026;-49
2021/09/15 05:12:50;;;;;;;18.38;15.32;;;19.30;91.60;;;;;;5056041;28;20114;-50
2021/09/15 05:15:16;;;;;;;17.52;14.00;;;19.40;91.30;;;;;;5056052;28;20035;-51
2021/09/15 05:17:41;;;;;;;18.27;15.05;;;19.40;91.20;;;;;;5055822;28;20056;-50
2021/09/15 05:20:07;;;;;;;18.63;15.98;;;19.30;91.30;;;;;;5055797;28;20454;-48
2021/09/15 05:22:33;;;;;;;22.40;16.98;;;19.40;91.60;;;;;;5056027;28;20047;-51
2021/09/15 05:24:59;;;;;;;20.40;15.60;;;19.50;91.70;;;;;;5054834;28;20096;-51
2021/09/15 05:27:24;;;;;;;15.32;13.65;;;19.50;91.10;;;;;;5055925;28;20171;-50
2021/09/15 05:29:50;;;;;;;17.73;13.98;;;19.40;91.10;;;;;;5055943;28;20025;-49
2021/09/15 05:32:16;;;;;;;20.15;14.02;;;19.30;91.30;;;;;;5057194;28;20021;-49
2021/09/15 05:34:41;;;;;;;18.52;14.88;;;19.30;91.40;;;;;;5055858;28;20472;-48
2021/09/15 05:37:07;;;;;;;20.58;15.15;;;19.30;91.50;;;;;;5055929;28;20534;-53
2021/09/15 05:39:32;;;;;;;18.05;16.13;;;19.30;91.70;;;;;;5055555;28;20025;-50
2021/09/15 05:41:58;;;;;;;21.08;18.83;;;19.30;91.80;;;;;;5055525;28;20028;-52
2021/09/15 05:44:24;;;;;;;15.88;13.73;;;19.30;91.60;;;;;;5055615;28;20460;-49
2021/09/15 05:46:49;;;;;;;20.58;14.23;;;19.30;91.60;;;;;;5055470;28;20021;-48
2021/09/15 05:49:15;;;;;;;18.08;14.00;;;19.30;91.40;;;;;;5055366;28;20033;-50
2021/09/15 05:51:41;;;;;;;15.65;12.80;;;19.30;91.40;;;;;;5056148;28;20056;-50
2021/09/15 05:54:08;;;;;;;18.63;14.82;;;19.30;91.30;;;;;;5055408;28;20025;-46
2021/09/15 05:56:34;;;;;;;18.13;13.50;;;19.30;91.40;;;;;;5053845;28;20029;-46
2021/09/15 05:58:59;;;;;;;20.58;14.73;;;19.30;91.50;;;;;;5053507;28;20050;-47
2021/09/15 06:01:25;;;;;;;17.58;13.73;;;19.50;91.50;;;;;;5054826;28;20029;-49
2021/09/15 06:03:51;;;;;;;20.15;15.25;;;19.50;91.10;;;;;;5055342;28;20025;-51
2021/09/15 06:06:16;;;;;;;22.23;15.00;;;19.50;91.20;;;;;;5055115;28;20445;-54
2021/09/15 06:08:42;;;;;;;18.15;14.75;;;19.50;91.30;;;;;;5054682;28;20052;-51
2021/09/15 06:11:08;;;;;;;18.77;15.82;;;19.40;91.50;;;;;;5054179;28;20033;-49
2021/09/15 06:13:34;;;;;;;27.17;16.40;;;19.50;91.70;;;;;;5054903;28;20377;-53
2021/09/15 06:16:00;;;;;;;19.60;14.57;;;19.40;91.80;;;;;;5054736;28;20032;-51
2021/09/15 06:18:25;;;;;;;23.98;15.55;;;19.40;91.70;;;;;;5054616;28;20049;-47
2021/09/15 06:20:51;;;;;;;21.27;15.63;;;19.50;91.80;;;;;;5054619;28;20366;-50
2021/09/15 06:23:17;;;;;;;21.50;15.10;;;19.60;91.60;;;;;;5054961;28;20028;-47
2021/09/15 06:25:43;;;;;;;18.67;15.48;;;19.70;91.30;;;;;;5054819;28;20021;-52
2021/09/15 06:28:09;;;;;;;20.15;15.40;;;19.80;91.10;;;;;;5054831;28;20540;-51
2021/09/15 06:30:35;;;;;;;16.25;14.65;;;19.90;90.60;;;;;;5054852;28;20056;-51
2021/09/15 06:33:01;;;;;;;18.27;15.18;;;19.90;90.10;;;;;;5054974;28;20204;-49
2021/09/15 06:35:27;;;;;;;17.40;14.32;;;19.80;90.70;;;;;;5054295;28;20056;-51
2021/09/15 06:37:52;;;;;;;19.17;14.05;;;19.80;90.50;;;;;;5054354;28;20187;-55
2021/09/15 06:40:18;;;;;;;17.42;14.25;;;19.80;90.40;;;;;;5054528;28;20026;-52
2021/09/15 06:42:44;;;;;;;18.38;14.82;;;19.80;90.50;;;;;;5055071;28;20036;-51
2021/09/15 06:45:10;;;;;;;17.58;13.60;;;19.80;90.60;;;;;;5055369;28;20027;-51
2021/09/15 06:47:41;;;;;;;22.73;15.73;;;19.80;90.30;;;;;;5054881;28;20029;-48
2021/09/15 06:50:08;;;;;;;20.15;14.10;;;19.70;90.60;;;;;;5054138;28;20029;-51
2021/09/15 06:52:33;;;;;;;20.50;15.05;;;19.80;90.60;;;;;;5053711;28;20032;-48
2021/09/15 06:54:59;;;;;;;20.98;17.27;;;19.90;90.60;;;;;;5053963;28;20025;-48
2021/09/15 06:57:25;;;;;;;17.33;15.35;;;20.00;90.00;;;;;;5054061;28;20021;-51
2021/09/15 06:59:50;;;;;;;27.17;18.63;;;20.00;90.20;;;;;;5054381;28;20037;-49
2021/09/15 07:02:16;;;;;;;21.70;18.98;;;19.90;90.10;;;;;;5053355;28;20021;-51
2021/09/15 07:04:42;;;;;;;21.80;18.92;;;19.80;90.50;;;;;;5053232;28;20089;-49
2021/09/15 07:07:07;;;;;;;23.95;18.70;;;19.90;90.10;;;;;;5053460;28;20107;-48
2021/09/15 07:09:33;;;;;;;20.08;17.80;;;19.80;90.30;;;;;;5053933;28;20020;-51
2021/09/15 07:11:59;;;;;;;20.70;16.65;;;19.80;90.40;;;;;;5053982;28;20025;-50
2021/09/15 07:14:25;;;;;;;24.60;18.33;;;19.90;90.20;;;;;;5052805;28;20079;-54
2021/09/15 07:16:50;;;;;;;19.15;17.05;;;19.80;90.30;;;;;;5053839;28;20053;-50
2021/09/15 07:19:16;;;;;;;23.15;17.83;;;19.80;90.60;;;;;;5053316;28;20354;-48
2021/09/15 07:21:42;;;;;;;23.08;18.27;;;19.90;90.80;;;;;;5053150;28;20100;-49
2021/09/15 07:24:07;;;;;;;23.58;19.00;;;19.90;90.40;;;;;;5053303;28;20480;-50
2021/09/15 07:26:33;;;;;;;24.92;18.67;;;20.00;90.90;;;;;;5053550;28;20564;-49
2021/09/15 07:28:59;;;;;;;22.52;16.17;;;20.00;90.80;;;;;;5053398;28;20033;-47
2021/09/15 07:31:24;;;;;;;22.15;18.38;;;20.00;90.50;;;;;;5053245;28;20397;-48
2021/09/15 07:33:50;;;;;;;24.17;18.85;;;20.10;90.40;;;;;;5052016;28;20029;-51
2021/09/15 07:36:16;;;;;;;22.15;17.08;;;20.30;89.50;;;;;;5052778;28;20033;-49
2021/09/15 07:38:42;;;;;;;22.33;17.08;;;20.10;89.80;;;;;;5052806;28;20021;-48
2021/09/15 07:41:08;;;;;;;17.75;15.85;;;20.20;89.80;;;;;;5053371;28;20021;-49
2021/09/15 07:43:33;;;;;;;18.38;15.30;;;20.20;89.30;;;;;;5052864;28;20055;-52
2021/09/15 07:45:59;;;;;;;21.40;17.10;;;20.10;89.60;;;;;;5052718;28;20385;-53
2021/09/15 07:48:25;;;;;;;19.38;17.05;;;20.10;90.00;;;;;;5053212;28;20025;-48
2021/09/15 07:50:51;;;;;;;20.20;16.85;;;19.90;90.40;;;;;;5053291;28;20029;-49
2021/09/15 07:53:18;;;;;;;18.60;16.23;;;19.70;91.30;;;;;;5052596;28;20526;-52
2021/09/15 07:55:44;;;;;;;21.80;16.55;;;19.70;91.90;;;;;;5052404;28;20025;-50
2021/09/15 07:58:10;;;;;;;25.40;17.17;;;19.70;92.10;;;;;;5052586;28;20060;-50
2021/09/15 08:00:36;;;;;;;20.50;16.88;;;19.80;92.00;;;;;;5053500;28;20028;-51
2021/09/15 08:03:01;;;;;;;24.73;18.70;;;19.80;91.70;;;;;;5053456;28;20036;-50
2021/09/15 08:05:27;;;;;;;23.08;17.60;;;20.00;91.60;;;;;;5053084;28;20056;-53
2021/09/15 08:07:53;;;;;;;21.35;17.83;;;20.00;91.00;;;;;;5052997;28;20066;-52
2021/09/15 08:10:18;;;;;;;23.40;18.60;;;19.80;91.40;;;;;;5052367;28;20052;-54
2021/09/15 08:12:44;;;;;;;25.13;18.13;;;19.80;91.90;;;;;;5052683;28;20433;-51
2021/09/15 08:15:10;;;;;;;25.30;18.85;;;19.80;91.80;;;;;;5053740;28;20361;-50
2021/09/15 08:17:38;;;;;;;22.98;18.63;;;19.80;92.00;;;;;;5052714;28;20037;-50
2021/09/15 08:20:05;;;;;;;23.25;20.23;;;19.80;92.00;;;;;;5053511;28;20025;-51
2021/09/15 08:22:30;;;;;;;25.45;19.17;;;19.80;91.90;;;;;;5052648;28;20419;-49
2021/09/15 08:24:56;;;;;;;24.10;19.13;;;19.90;92.10;;;;;;5050915;28;20100;-48
2021/09/15 08:27:21;;;;;;;26.60;20.50;;;20.10;91.80;;;;;;5052320;28;20472;-52
2021/09/15 08:29:47;;;;;;;25.02;18.40;;;20.00;91.40;;;;;;5052572;28;20025;-48
2021/09/15 08:32:12;;;;;;;25.25;19.95;;;20.10;91.50;;;;;;5051771;28;20025;-50
2021/09/15 08:34:38;;;;;;;29.70;20.02;;;20.20;90.90;;;;;;5054482;28;20491;-51
2021/09/15 08:37:04;;;;;;;30.90;20.08;;;20.00;91.70;;;;;;5056236;28;20060;-50
2021/09/15 08:39:29;;;;;;;28.05;22.60;;;20.10;91.60;;;;;;5056146;28;20029;-50
2021/09/15 08:41:55;;;;;;;25.27;18.98;;;20.30;91.10;;;;;;5056192;28;20021;-51
2021/09/15 08:44:21;;;;;;;27.80;19.10;;;20.20;91.20;;;;;;5056342;28;20385;-50
2021/09/15 08:46:48;;;;;;;26.23;20.88;;;20.30;91.70;;;;;;5055831;28;20025;-52
2021/09/15 08:49:16;;;;;;;29.02;21.55;;;20.50;90.70;;;;;;5056056;28;20021;-51
2021/09/15 08:51:42;;;;;;;27.90;20.67;;;20.70;90.00;;;;;;5056020;28;20041;-51
2021/09/15 08:54:10;;;;;;;24.88;18.92;;;20.50;90.00;;;;;;5055923;28;20131;-50
2021/09/15 08:56:36;;;;;;;23.73;19.88;;;20.50;90.50;;;;;;5055669;28;20513;-50
2021/09/15 08:59:02;;;;;;;28.50;18.23;;;20.50;90.20;;;;;;5054346;28;20064;-52
2021/09/15 09:01:28;;;;;;;28.35;18.60;;;20.50;90.90;;;;;;5055529;28;20052;-50
2021/09/15 09:03:56;;;;;;;20.88;18.45;;;20.70;90.10;;;;;;5055772;28;20509;-51
2021/09/15 09:06:25;;;;;;;27.77;19.30;;;20.80;89.50;;;;;;5055462;28;20429;-51
2021/09/15 09:09:00;;;;;;;24.33;17.73;;;20.80;89.40;;;;;;5055408;28;20025;-48
2021/09/15 09:11:29;;;;;;;22.30;18.70;;;20.80;89.50;;;;;;5055584;28;20357;-53
2021/09/15 09:14:01;;;;;;;24.33;18.27;;;20.80;89.50;;;;;;5055400;28;20104;-50
2021/09/15 09:16:43;;;;;;;25.42;18.05;;;20.80;90.40;;;;;;5055447;28;20464;-51
2021/09/15 09:19:14;;;;;;;28.50;18.65;;;20.80;90.30;;;;;;5055227;28;20028;-47
2021/09/15 09:21:44;;;;;;;18.90;16.88;;;20.70;90.00;;;;;;5055516;28;20107;-52
2021/09/15 09:24:11;;;;;;;24.83;17.08;;;20.60;90.50;;;;;;5055652;28;20016;-48
2021/09/15 09:26:43;;;;;;;28.30;17.58;;;20.40;90.70;;;;;;5055717;28;20021;-48
2021/09/15 09:29:24;;;;;;;33.00;21.42;;;20.30;91.00;;;;;;5055448;28;20076;-50
2021/09/15 09:32:05;;;;;;;28.95;17.02;;;20.30;91.20;;;;;;5055239;28;20183;-51
2021/09/15 09:34:48;;;;;;;23.13;18.65;;;20.10;91.60;;;;;;5055496;28;20079;-49
2021/09/15 09:37:19;;;;;;;25.17;17.45;;;20.20;91.70;;;;;;5055614;28;20335;-51
2021/09/15 09:39:55;;;;;;;21.38;15.63;;;20.10;91.50;;;;;;5054715;28;20366;-48
2021/09/15 09:42:24;;;;;;;22.98;14.30;;;19.90;91.90;;;;;;5054560;28;20029;-48
2021/09/15 09:44:54;;;;;;;25.38;15.82;;;19.90;91.90;;;;;;5054495;28;20503;-49
2021/09/15 09:47:24;;;;;;;29.77;18.05;;;19.90;91.90;;;;;;5054854;28;20025;-49
2021/09/15 09:50:10;;;;;;;24.40;17.33;;;19.90;91.40;;;;;;5055081;28;20024;-49
2021/09/15 09:53:00;;;;;;;21.02;16.27;;;20.00;91.50;;;;;;5055393;28;20032;-48
2021/09/15 09:55:34;;;;;;;23.02;16.08;;;19.80;91.70;;;;;;5055059;28;20488;-53
2021/09/15 09:58:04;;;;;;;23.50;18.45;;;19.80;92.20;;;;;;5054859;28;20036;-50
2021/09/15 10:00:31;;;;;;;28.40;19.95;;;19.80;92.10;;;;;;5054648;28;20439;-49
2021/09/15 10:02:58;;;;;;;26.55;17.85;;;19.80;92.10;;;;;;5054656;28;20032;-49
2021/09/15 10:05:24;;;;;;;23.58;17.15;;;19.80;92.30;;;;;;5055157;28;20021;-51
2021/09/15 10:07:50;;;;;;;21.90;18.02;;;19.80;92.50;;;;;;5055461;28;20025;-49
2021/09/15 10:10:18;;;;;;;26.27;20.75;;;19.80;93.00;;;;;;5054857;28;20147;-48
2021/09/15 10:12:45;;;;;;;32.28;22.85;;;19.80;93.10;;;;;;5054467;28;20124;-50
2021/09/15 10:15:12;;;;;;;40.38;28.38;;;19.80;93.10;;;;;;5054306;28;20075;-49
2021/09/15 10:18:09;;;;;;;32.95;25.63;;;19.70;93.20;;;;;;5054451;28;20045;-52
2021/09/15 10:20:36;;;;;;;31.25;24.70;;;19.80;93.30;;;;;;5054496;28;20045;-49
2021/09/15 10:23:22;;;;;;;28.30;22.88;;;19.80;92.70;;;;;;5053319;28;20539;-48
2021/09/15 10:25:47;;;;;;;30.90;23.02;;;19.80;92.50;;;;;;5054482;28;20021;-51
2021/09/15 10:28:13;;;;;;;32.47;24.42;;;19.80;92.80;;;;;;5054324;28;20112;-49
2021/09/15 10:30:43;;;;;;;32.25;23.67;;;20.10;92.60;;;;;;5053075;28;20366;-52
2021/09/15 10:33:38;;;;;;;29.08;23.73;;;20.20;92.30;;;;;;5054596;28;20025;-50
2021/09/15 10:36:13;;;;;;;30.67;22.20;;;20.40;91.40;;;;;;5054585;28;20105;-53
2021/09/15 10:38:50;;;;;;;29.30;20.33;;;20.40;91.50;;;;;;5053908;28;20091;-53
2021/09/15 10:41:35;;;;;;;15.98;13.50;;;20.40;91.60;;;;;;5054485;28;20021;-54
2021/09/15 10:44:05;;;;;;;15.98;13.95;;;20.40;90.80;;;;;;5053960;28;20030;-55
2021/09/15 10:46:31;;;;;;;10.57;9.48;;;20.40;90.90;;;;;;5052988;28;20020;-53
2021/09/15 10:49:32;;;;;;;11.43;9.38;;;20.30;90.80;;;;;;5053989;28;20086;-50
2021/09/15 10:52:09;;;;;;;8.77;7.88;;;20.30;90.90;;;;;;5052085;28;20040;-50
2021/09/15 10:54:45;;;;;;;9.70;8.80;;;20.20;90.80;;;;;;5053948;28;20452;-53
2021/09/15 10:57:18;;;;;;;10.30;9.20;;;20.30;90.60;;;;;;5051247;28;20047;-52
2021/09/15 10:59:51;;;;;;;8.10;6.97;;;20.30;90.50;;;;;;5052280;28;20074;-52
2021/09/15 11:02:30;;;;;;;8.35;7.55;;;20.30;90.40;;;;;;5035509;28;20039;-52
2021/09/15 11:04:58;;;;;;;7.60;6.88;;;20.40;90.30;;;;;;5053712;28;20021;-49
2021/09/15 11:07:48;;;;;;;7.95;7.20;;;20.40;90.20;;;;;;5053727;28;20407;-50
2021/09/15 11:10:32;;;;;;;;;;;20.40;90.40;;;;;;5053864;28;20429;-50
2021/09/15 11:13:06;;;;;;;10.77;9.25;;;20.40;90.20;;;;;;5053152;28;20068;-52
2021/09/15 11:15:34;;;;;;;12.80;6.95;;;20.50;90.30;;;;;;5053465;28;20028;-51
2021/09/15 11:18:00;;;;;;;7.22;6.63;;;20.60;90.00;;;;;;5052583;28;20037;-50
2021/09/15 11:20:28;;;;;;;7.13;6.53;;;20.80;89.50;;;;;;5053289;28;20060;-48
2021/09/15 11:22:55;;;;;;;7.75;6.95;;;20.80;89.30;;;;;;5053014;28;20419;-48
2021/09/15 11:25:25;;;;;;;10.77;8.27;;;20.70;89.90;;;;;;5053404;28;20025;-49
2021/09/15 11:28:23;;;;;;;;;;;20.50;90.20;;;;;;5053797;28;20028;-49
2021/09/15 11:30:52;;;;;;;9.75;7.85;;;20.40;90.00;;;;;;5040550;28;20046;-53
2021/09/15 11:33:35;;;;;;;10.60;7.13;;;20.50;89.90;;;;;;5055391;28;20069;-50
2021/09/15 11:36:02;;;;;;;8.82;7.90;;;20.50;89.90;;;;;;5054204;28;20131;-48
2021/09/15 11:38:31;;;;;;;13.30;8.52;;;20.50;90.30;;;;;;5053710;28;20056;-50
2021/09/15 11:41:26;;;;;;;8.95;8.00;;;20.50;90.40;;;;;;5053884;28;20039;-50
2021/09/15 11:43:51;;;;;;;11.15;8.52;;;20.60;90.10;;;;;;5053098;28;20040;-52
2021/09/15 11:46:19;;;;;;;12.77;8.57;;;20.60;90.20;;;;;;5053911;28;20021;-54
2021/09/15 11:48:45;;;;;;;11.02;7.30;;;20.50;90.00;;;;;;5053666;28;20025;-49
2021/09/15 11:51:20;;;;;;;11.48;7.35;;;20.50;90.10;;;;;;5053273;28;20033;-48
2021/09/15 11:53:53;;;;;;;11.52;8.40;;;20.60;90.10;;;;;;5053157;28;20032;-48
2021/09/15 11:59:16;;;;;;;11.52;10.15;;;20.70;89.70;;;;;;5053184;28;20426;-53
2021/09/15 12:01:43;;;;;;;17.55;12.10;;;20.60;89.90;;;;;;5051269;28;20472;-50
2021/09/15 12:04:10;;;;;;;19.65;14.95;;;20.50;90.20;;;;;;5053991;28;20024;-49
2021/09/15 12:06:36;;;;;;;21.63;14.80;;;20.50;90.50;;;;;;5052945;28;20025;-49
2021/09/15 12:09:03;;;;;;;23.83;18.33;;;20.50;90.30;;;;;;5052962;28;20056;-50
2021/09/15 12:11:31;;;;;;;22.88;17.10;;;20.50;90.20;;;;;;5051311;28;20098;-48
2021/09/15 12:14:02;;;;;;;18.50;15.15;;;20.40;90.40;;;;;;5053013;28;20029;-51
2021/09/15 12:16:33;;;;;;;19.10;15.57;;;20.50;90.30;;;;;;5052530;28;20028;-49
2021/09/15 12:19:00;;;;;;;23.40;15.45;;;20.50;90.50;;;;;;5051343;28;20044;-51
2021/09/15 12:21:28;;;;;;;21.55;16.77;;;20.80;90.00;;;;;;5053382;28;20036;-48
2021/09/15 12:24:20;;;;;;;21.98;16.98;;;20.90;89.00;;;;;;5051290;28;20111;-48
2021/09/15 12:26:49;;;;;;;20.80;13.82;;;21.30;88.20;;;;;;5053063;28;20080;-54
2021/09/15 12:29:16;;;;;;;17.95;12.45;;;21.30;87.70;;;;;;5051451;28;20503;-50
2021/09/15 12:31:48;;;;;;;16.33;12.38;;;21.30;87.50;;;;;;5052320;28;20033;-50
2021/09/15 12:34:26;;;;;;;17.90;12.80;;;21.40;87.00;;;;;;5052714;28;20025;-49
2021/09/15 12:36:52;;;;;;;22.17;14.88;;;21.30;87.10;;;;;;5052222;28;20040;-49
2021/09/15 12:39:18;;;;;;;20.35;14.07;;;21.30;87.10;;;;;;5052223;28;20389;-50
2021/09/15 12:41:49;;;;;;;15.98;10.60;;;21.50;86.90;;;;;;5052757;28;20021;-49